createdAt,value
2018-03-15T00:02:00.920Z,49.83
2018-03-15T00:04:37.820Z,49.75
2018-03-15T00:07:06.318Z,50.10
2018-03-15T00:09:34.770Z,50.03
2018-03-15T00:12:03.262Z,49.68
2018-03-15T00:14:31.758Z,49.77
2018-03-15T00:17:00.207Z,49.22
2018-03-15T00:19:28.695Z,50.49
2018-03-15T00:21:57.182Z,50.93
2018-03-15T00:24:25.634Z,51.27
2018-03-15T00:26:54.122Z,51.11
2018-03-15T00:29:22.588Z,51.28
2018-03-15T00:31:51.078Z,52.04
2018-03-15T00:34:19.526Z,51.21
2018-03-15T00:36:48.018Z,51.12
2018-03-15T00:39:16.502Z,50.72
2018-03-15T00:41:45.020Z,50.81
2018-03-15T00:44:13.475Z,51.19
2018-03-15T00:46:42.766Z,50.92
2018-03-15T00:49:11.280Z,51.10
2018-03-15T00:51:39.750Z,51.21
2018-03-15T00:54:08.244Z,50.91
2018-03-15T00:56:36.694Z,51.22
2018-03-15T00:59:05.138Z,51.88
2018-03-15T01:01:33.640Z,51.69
2018-03-15T01:04:02.102Z,51.75
2018-03-15T01:06:30.638Z,52.20
2018-03-15T01:08:59.097Z,51.80
2018-03-15T01:11:27.609Z,52.64
2018-03-15T01:13:56.067Z,51.72
2018-03-15T01:16:24.546Z,52.86
2018-03-15T01:18:53.042Z,52.20
2018-03-15T01:21:21.530Z,52.63
2018-03-15T01:23:50.027Z,52.08
2018-03-15T01:26:18.478Z,51.82
2018-03-15T01:28:46.974Z,51.93
2018-03-15T01:31:15.422Z,52.93
2018-03-15T01:33:43.918Z,52.25
2018-03-15T01:36:12.442Z,52.09
2018-03-15T01:38:40.858Z,52.12
2018-03-15T01:41:10.112Z,52.09
2018-03-15T01:43:38.602Z,52.32
2018-03-15T01:46:07.110Z,51.89
2018-03-15T01:48:35.619Z,51.42
2018-03-15T01:51:04.117Z,51.64
2018-03-15T01:53:32.574Z,52.15
2018-03-15T01:56:01.094Z,52.27
2018-03-15T01:58:29.590Z,52.16
2018-03-15T02:00:58.102Z,52.00
2018-03-15T02:03:26.594Z,51.81
2018-03-15T02:05:55.120Z,52.04
2018-03-15T02:08:23.601Z,51.68
2018-03-15T02:10:52.141Z,51.77
2018-03-15T02:13:20.638Z,51.75
2018-03-15T02:15:49.130Z,51.84
2018-03-15T02:18:17.614Z,51.66
2018-03-15T02:20:46.070Z,51.57
2018-03-15T02:23:14.553Z,51.46
2018-03-15T02:25:43.016Z,51.34
2018-03-15T02:28:11.539Z,51.24
2018-03-15T02:30:39.998Z,51.18
2018-03-15T02:33:08.507Z,51.28
2018-03-15T02:35:36.969Z,51.21
2018-03-15T02:38:05.462Z,51.61
2018-03-15T02:40:33.931Z,51.65
2018-03-15T02:43:02.430Z,51.40
2018-03-15T02:45:30.896Z,51.33
2018-03-15T02:47:59.394Z,51.46
2018-03-15T02:50:27.846Z,51.38
2018-03-15T02:52:56.362Z,51.64
2018-03-15T02:55:24.865Z,51.54
2018-03-15T02:57:53.361Z,51.80
2018-03-15T03:00:21.858Z,51.94
2018-03-15T03:02:50.347Z,51.76
2018-03-15T03:05:18.806Z,52.30
2018-03-15T03:07:47.296Z,52.04
2018-03-15T03:10:15.754Z,51.72
2018-03-15T03:12:44.294Z,52.03
2018-03-15T03:15:12.798Z,52.07
2018-03-15T03:17:41.310Z,52.33
2018-03-15T03:20:09.774Z,52.53
2018-03-15T03:22:38.259Z,52.89
2018-03-15T03:25:06.715Z,52.13
2018-03-15T03:27:35.216Z,52.15
2018-03-15T03:30:03.729Z,52.05
2018-03-15T03:32:32.238Z,51.99
2018-03-15T03:35:00.721Z,51.77
2018-03-15T03:37:29.174Z,51.75
2018-03-15T03:39:57.702Z,51.89
2018-03-15T03:42:26.194Z,52.09
2018-03-15T03:44:54.650Z,52.12
2018-03-15T03:47:23.097Z,52.27
2018-03-15T03:49:51.589Z,51.88
2018-03-15T03:52:20.045Z,51.84
2018-03-15T03:54:48.529Z,51.56
2018-03-15T03:57:16.980Z,51.64
2018-03-15T03:59:45.486Z,52.24
2018-03-15T04:02:13.943Z,51.81
2018-03-15T04:04:42.419Z,51.87
2018-03-15T04:07:10.906Z,51.89
2018-03-15T04:09:39.369Z,51.95
2018-03-15T04:12:07.830Z,52.07
2018-03-15T04:14:36.306Z,52.29
2018-03-15T04:17:04.776Z,52.64
2018-03-15T04:19:33.269Z,52.45
2018-03-15T04:22:01.780Z,53.06
2018-03-15T04:24:30.235Z,52.86
2018-03-15T04:26:58.762Z,53.37
2018-03-15T04:29:27.238Z,53.25
2018-03-15T04:31:55.787Z,53.14
2018-03-15T04:34:24.265Z,52.99
2018-03-15T04:36:52.741Z,53.64
2018-03-15T04:39:21.234Z,53.25
2018-03-15T04:41:49.697Z,53.15
2018-03-15T04:44:18.186Z,53.24
2018-03-15T04:46:46.678Z,53.16
2018-03-15T04:49:15.162Z,53.30
2018-03-15T04:51:43.619Z,53.32
2018-03-15T04:54:12.105Z,53.14
2018-03-15T04:56:40.597Z,53.07
2018-03-15T04:59:09.081Z,52.90
2018-03-15T05:01:37.573Z,52.95
2018-03-15T05:04:06.120Z,52.53
2018-03-15T05:06:34.610Z,52.27
2018-03-15T05:09:03.130Z,51.66
2018-03-15T05:11:31.626Z,52.01
2018-03-15T05:14:00.082Z,51.98
2018-03-15T05:16:28.578Z,51.79
2018-03-15T05:18:57.035Z,51.44
2018-03-15T05:21:25.529Z,51.14
2018-03-15T05:23:54.022Z,51.20
2018-03-15T05:26:22.529Z,50.94
2018-03-15T05:28:51.033Z,50.78
2018-03-15T05:31:19.526Z,50.69
2018-03-15T05:33:47.985Z,50.51
2018-03-15T05:36:16.484Z,50.63
2018-03-15T05:38:44.961Z,50.44
2018-03-15T05:41:13.451Z,50.24
2018-03-15T05:43:41.910Z,50.20
2018-03-15T05:46:10.477Z,49.99
2018-03-15T05:48:38.934Z,50.24
2018-03-15T05:51:07.434Z,49.63
2018-03-15T05:53:35.947Z,49.68
2018-03-15T05:56:04.398Z,48.91
2018-03-15T05:58:32.907Z,48.38
2018-03-15T06:01:01.438Z,48.10
2018-03-15T06:03:29.891Z,47.92
2018-03-15T06:05:58.396Z,47.14
2018-03-15T06:08:26.898Z,46.94
2018-03-15T06:10:55.358Z,46.29
2018-03-15T06:13:23.822Z,46.49
2018-03-15T06:15:52.318Z,45.96
2018-03-15T06:18:20.774Z,45.33
2018-03-15T06:20:49.276Z,45.73
2018-03-15T06:23:17.762Z,45.22
2018-03-15T06:25:46.274Z,45.09
2018-03-15T06:28:15.359Z,45.07
2018-03-15T06:30:43.864Z,45.16
2018-03-15T06:33:12.368Z,45.22
2018-03-15T06:35:40.894Z,45.66
2018-03-15T06:38:09.422Z,45.46
2018-03-15T06:40:37.879Z,45.57
2018-03-15T06:43:06.358Z,45.64
2018-03-15T06:45:34.865Z,45.14
2018-03-15T06:48:03.355Z,44.81
2018-03-15T06:50:31.906Z,44.46
2018-03-15T06:53:00.375Z,44.09
2018-03-15T06:55:28.952Z,43.80
2018-03-15T06:57:57.454Z,43.59
2018-03-15T07:00:25.916Z,43.31
2018-03-15T07:02:54.470Z,43.04
2018-03-15T07:05:22.974Z,42.47
2018-03-15T07:07:51.537Z,42.64
2018-03-15T07:10:20.097Z,42.42
2018-03-15T07:12:48.578Z,42.38
2018-03-15T07:15:17.154Z,42.41
2018-03-15T07:17:45.613Z,42.27
2018-03-15T07:20:14.168Z,42.35
2018-03-15T07:22:42.667Z,41.86
2018-03-15T07:25:11.210Z,41.71
2018-03-15T07:27:39.721Z,41.45
2018-03-15T07:30:08.234Z,41.55
2018-03-15T07:32:36.717Z,41.33
2018-03-15T07:35:05.244Z,41.16
2018-03-15T07:37:33.720Z,41.13
2018-03-15T07:40:02.440Z,40.54
2018-03-15T07:42:30.947Z,40.68
2018-03-15T07:44:59.417Z,41.26
2018-03-15T07:47:27.921Z,41.10
2018-03-15T07:49:56.400Z,40.86
2018-03-15T07:52:24.893Z,40.73
2018-03-15T07:54:53.361Z,40.54
2018-03-15T07:57:21.858Z,40.92
2018-03-15T07:59:50.337Z,40.23
2018-03-15T08:02:18.846Z,40.27
2018-03-15T08:04:48.301Z,40.00
2018-03-15T08:07:16.972Z,40.00
2018-03-15T08:09:45.430Z,40.36
2018-03-15T08:12:14.072Z,39.89
2018-03-15T08:14:42.934Z,39.97
2018-03-15T08:17:11.420Z,40.20
2018-03-15T08:19:39.944Z,40.30
2018-03-15T08:22:08.410Z,40.05
2018-03-15T08:24:36.906Z,40.45
2018-03-15T08:27:05.404Z,40.06
2018-03-15T08:29:33.898Z,40.38
2018-03-15T08:32:02.390Z,40.09
2018-03-15T08:34:30.887Z,40.10
2018-03-15T08:36:59.330Z,39.79
2018-03-15T08:39:27.867Z,39.90
2018-03-15T08:41:56.314Z,39.81
2018-03-15T08:44:24.818Z,39.79
2018-03-15T08:46:53.297Z,39.82
2018-03-15T08:49:21.818Z,39.56
2018-03-15T08:51:50.286Z,39.10
2018-03-15T08:54:18.840Z,39.33
2018-03-15T08:56:47.345Z,39.33
2018-03-15T08:59:15.874Z,39.02
2018-03-15T09:01:44.378Z,39.30
2018-03-15T09:04:12.853Z,38.91
2018-03-15T09:06:41.422Z,39.41
2018-03-15T09:09:09.905Z,39.35
2018-03-15T09:11:38.410Z,39.22
2018-03-15T09:14:06.886Z,39.35
2018-03-15T09:16:35.438Z,39.39
2018-03-15T09:19:03.980Z,39.65
2018-03-15T09:21:32.515Z,39.36
2018-03-15T09:24:00.967Z,39.55
2018-03-15T09:26:29.446Z,39.12
2018-03-15T09:28:57.947Z,39.67
2018-03-15T09:31:26.422Z,39.98
2018-03-15T09:33:54.966Z,39.91
2018-03-15T09:36:23.505Z,40.10
2018-03-15T09:38:51.980Z,40.21
2018-03-15T09:41:20.490Z,39.04
2018-03-15T09:43:49.022Z,38.66
2018-03-15T09:46:17.587Z,37.98
2018-03-15T09:48:46.074Z,37.89
2018-03-15T09:51:14.577Z,37.69
2018-03-15T09:53:43.062Z,36.84
2018-03-15T09:56:11.607Z,36.34
2018-03-15T09:58:40.106Z,35.61
2018-03-15T10:01:08.642Z,34.80
2018-03-15T10:03:37.120Z,35.03
2018-03-15T10:06:05.664Z,35.25
2018-03-15T10:08:34.218Z,34.97
2018-03-15T10:11:02.798Z,36.08
2018-03-15T10:13:31.339Z,35.98
2018-03-15T10:15:59.953Z,35.82
2018-03-15T10:18:28.594Z,35.40
2018-03-15T10:20:57.271Z,35.83
2018-03-15T10:23:25.776Z,34.68
2018-03-15T10:25:54.350Z,35.07
2018-03-15T10:28:22.857Z,35.23
2018-03-15T10:30:51.361Z,34.91
2018-03-15T10:33:25.406Z,34.90
2018-03-15T10:35:53.943Z,36.79
2018-03-15T10:38:22.466Z,36.61
2018-03-15T10:40:51.036Z,36.06
2018-03-15T10:43:19.567Z,35.43
2018-03-15T10:45:48.124Z,35.33
2018-03-15T10:48:16.882Z,35.37
2018-03-15T10:50:45.374Z,34.43
2018-03-15T10:53:13.933Z,34.71
2018-03-15T10:55:42.433Z,34.19
2018-03-15T10:58:10.966Z,34.76
2018-03-15T11:00:45.080Z,34.91
2018-03-15T11:03:17.405Z,33.77
2018-03-15T11:05:48.370Z,33.94
2018-03-15T11:08:22.544Z,33.87
2018-03-15T11:10:51.048Z,34.35
2018-03-15T11:13:19.587Z,34.03
2018-03-15T11:15:48.097Z,33.21
2018-03-15T11:18:16.620Z,33.70
2018-03-15T11:20:45.197Z,33.74
2018-03-15T11:23:13.682Z,33.96
2018-03-15T11:25:42.454Z,33.77
2018-03-15T11:28:10.975Z,33.63
2018-03-15T11:30:39.527Z,34.29
2018-03-15T11:33:08.014Z,33.84
2018-03-15T11:35:36.502Z,33.85
2018-03-15T11:38:05.043Z,34.18
2018-03-15T11:40:33.550Z,34.31
2018-03-15T11:43:02.204Z,33.97
2018-03-15T11:45:30.738Z,33.34
2018-03-15T11:47:59.273Z,33.28
2018-03-15T11:50:27.803Z,33.12
2018-03-15T11:52:56.318Z,32.83
2018-03-15T11:55:24.920Z,33.06
2018-03-15T11:57:53.409Z,32.84
2018-03-15T12:00:21.944Z,33.99
2018-03-15T12:02:50.414Z,33.79
2018-03-15T12:05:18.923Z,33.82
2018-03-15T12:07:47.473Z,32.48
2018-03-15T12:10:15.974Z,32.28
2018-03-15T12:12:44.474Z,31.99
2018-03-15T12:15:13.019Z,31.97
2018-03-15T12:17:41.545Z,32.24
2018-03-15T12:20:09.997Z,32.44
2018-03-15T12:22:38.522Z,32.57
2018-03-15T12:25:07.011Z,32.76
2018-03-15T12:27:35.510Z,32.75
2018-03-15T12:30:04.050Z,32.34
2018-03-15T12:32:32.510Z,32.63
2018-03-15T12:35:01.027Z,32.42
2018-03-15T12:37:29.489Z,32.10
2018-03-15T12:39:57.993Z,32.39
2018-03-15T12:42:26.446Z,31.62
2018-03-15T12:44:54.966Z,31.85
2018-03-15T12:47:23.434Z,31.57
2018-03-15T12:49:51.975Z,31.03
2018-03-15T12:52:20.435Z,30.88
2018-03-15T12:54:48.927Z,31.27
2018-03-15T12:57:17.384Z,30.42
2018-03-15T12:59:45.897Z,30.79
2018-03-15T13:02:14.354Z,30.75
2018-03-15T13:04:42.825Z,30.93
2018-03-15T13:07:11.353Z,30.77
2018-03-15T13:09:39.852Z,29.24
2018-03-15T13:12:08.339Z,30.21
2018-03-15T13:14:36.794Z,28.96
2018-03-15T13:17:05.310Z,29.73
2018-03-15T13:19:33.766Z,29.83
2018-03-15T13:22:02.309Z,29.70
2018-03-15T13:24:30.815Z,29.85
2018-03-15T13:26:59.321Z,29.34
2018-03-15T13:29:27.858Z,29.31
2018-03-15T13:31:56.389Z,29.00
2018-03-15T13:34:24.937Z,29.17
2018-03-15T13:36:53.421Z,29.27
2018-03-15T13:39:21.914Z,29.84
2018-03-15T13:41:50.413Z,30.01
2018-03-15T13:44:18.980Z,30.13
2018-03-15T13:46:47.483Z,29.64
2018-03-15T13:49:15.974Z,29.18
2018-03-15T13:51:44.494Z,29.43
2018-03-15T13:54:13.012Z,29.59
2018-03-15T13:56:41.472Z,29.81
2018-03-15T13:59:09.962Z,29.94
2018-03-15T14:01:38.454Z,30.26
2018-03-15T14:04:07.825Z,30.26
2018-03-15T14:06:36.282Z,29.96
2018-03-15T14:09:04.880Z,30.46
2018-03-15T14:11:33.391Z,30.26
2018-03-15T14:14:01.909Z,29.88
2018-03-15T14:16:30.414Z,30.06
2018-03-15T14:18:58.942Z,29.83
2018-03-15T14:21:27.452Z,29.99
2018-03-15T14:23:55.918Z,30.35
2018-03-15T14:26:24.429Z,30.07
2018-03-15T14:28:52.927Z,29.91
2018-03-15T14:31:21.414Z,29.72
2018-03-15T14:33:49.938Z,29.28
2018-03-15T14:36:18.437Z,29.51
2018-03-15T14:38:46.942Z,29.28
2018-03-15T14:41:15.458Z,28.56
2018-03-15T14:43:44.003Z,29.36
2018-03-15T14:46:12.480Z,29.23
2018-03-15T14:48:41.006Z,29.56
2018-03-15T14:51:09.543Z,28.96
2018-03-15T14:53:38.060Z,29.74
2018-03-15T14:56:06.634Z,29.71
2018-03-15T14:58:35.104Z,29.70
2018-03-15T15:01:03.600Z,29.38
2018-03-15T15:03:32.104Z,29.68
2018-03-15T15:06:00.599Z,29.92
2018-03-15T15:08:29.098Z,30.07
2018-03-15T15:10:59.089Z,29.82
2018-03-15T15:13:29.056Z,29.90
2018-03-15T15:15:59.744Z,29.60
2018-03-15T15:18:34.980Z,29.61
2018-03-15T15:21:07.605Z,30.20
2018-03-15T15:23:43.564Z,30.07
2018-03-15T15:26:15.226Z,30.31
2018-03-15T15:28:46.339Z,30.16
2018-03-15T15:31:16.306Z,30.48
2018-03-15T15:33:45.262Z,30.48
2018-03-15T15:36:14.824Z,30.62
2018-03-15T15:38:43.518Z,30.68
2018-03-15T15:41:12.207Z,30.71
2018-03-15T15:43:40.841Z,30.88
2018-03-15T15:46:09.440Z,31.04
2018-03-15T15:48:38.021Z,32.45
2018-03-15T15:51:06.500Z,32.82
2018-03-15T15:53:34.958Z,33.87
2018-03-15T15:56:03.510Z,32.78
2018-03-15T15:58:32.034Z,33.02
2018-03-15T16:01:00.535Z,33.78
2018-03-15T16:03:29.010Z,34.59
2018-03-15T16:05:57.498Z,34.64
2018-03-15T16:08:25.986Z,34.22
2018-03-15T16:10:54.494Z,34.47
2018-03-15T16:13:22.996Z,34.47
2018-03-15T16:15:51.519Z,34.55
2018-03-15T16:18:19.929Z,34.75
2018-03-15T16:20:48.423Z,34.71
2018-03-15T16:23:16.878Z,34.98
2018-03-15T16:25:45.402Z,35.10
2018-03-15T16:28:13.869Z,35.36
2018-03-15T16:30:42.378Z,36.06
2018-03-15T16:33:10.878Z,35.89
2018-03-15T16:35:39.341Z,36.14
2018-03-15T16:38:07.829Z,36.17
2018-03-15T16:40:36.294Z,36.32
2018-03-15T16:43:04.880Z,36.39
2018-03-15T16:45:33.313Z,36.59
2018-03-15T16:48:01.762Z,36.73
2018-03-15T16:50:30.250Z,37.10
2018-03-15T16:52:58.737Z,37.46
2018-03-15T16:55:27.195Z,37.53
2018-03-15T16:57:55.690Z,37.86
2018-03-15T17:00:24.158Z,38.16
2018-03-15T17:02:52.665Z,38.39
2018-03-15T17:05:21.140Z,38.54
2018-03-15T17:07:49.613Z,38.71
2018-03-15T17:10:18.110Z,38.64
2018-03-15T17:12:46.567Z,38.84
2018-03-15T17:15:15.058Z,38.95
2018-03-15T17:17:43.522Z,39.22
2018-03-15T17:20:12.014Z,39.23
2018-03-15T17:22:40.473Z,39.64
2018-03-15T17:25:09.046Z,39.79
2018-03-15T17:27:37.542Z,39.84
2018-03-15T17:30:06.051Z,40.38
2018-03-15T17:32:34.538Z,40.57
2018-03-15T17:35:03.050Z,40.62
2018-03-15T17:37:31.521Z,40.97
2018-03-15T17:40:00.019Z,41.04
2018-03-15T17:42:28.505Z,41.14
2018-03-15T17:44:56.966Z,41.25
2018-03-15T17:47:25.453Z,41.32
2018-03-15T17:49:53.909Z,41.54
2018-03-15T17:52:22.398Z,41.54
2018-03-15T17:54:50.889Z,41.72
2018-03-15T17:57:19.345Z,41.98
2018-03-15T17:59:47.838Z,41.88
2018-03-15T18:02:16.301Z,41.92
2018-03-15T18:04:44.832Z,42.01
2018-03-15T18:07:13.286Z,42.04
2018-03-15T18:09:41.802Z,42.72
2018-03-15T18:12:10.255Z,42.84
2018-03-15T18:14:38.757Z,42.51
2018-03-15T18:17:07.264Z,42.83
2018-03-15T18:19:35.740Z,43.25
2018-03-15T18:22:04.250Z,42.96
2018-03-15T18:24:32.714Z,43.12
2018-03-15T18:27:01.227Z,43.34
2018-03-15T18:29:29.682Z,43.24
2018-03-15T18:31:58.134Z,42.99
2018-03-15T18:34:26.656Z,43.25
2018-03-15T18:36:55.152Z,43.58
2018-03-15T18:39:23.670Z,43.56
2018-03-15T18:41:52.136Z,43.81
2018-03-15T18:44:20.627Z,43.68
2018-03-15T18:46:49.083Z,44.28
2018-03-15T18:49:17.533Z,43.75
2018-03-15T18:51:46.027Z,43.82
2018-03-15T18:54:14.519Z,43.69
2018-03-15T18:56:43.025Z,43.90
2018-03-15T18:59:11.478Z,44.08
2018-03-15T19:01:39.975Z,44.09
2018-03-15T19:04:08.430Z,44.24
2018-03-15T19:06:36.927Z,44.26
2018-03-15T19:09:05.403Z,44.25
2018-03-15T19:11:33.905Z,44.57
2018-03-15T19:14:02.440Z,44.51
2018-03-15T19:16:30.902Z,44.71
2018-03-15T19:18:59.418Z,44.70
2018-03-15T19:21:27.878Z,44.63
2018-03-15T19:23:56.365Z,44.63
2018-03-15T19:26:24.832Z,44.58
2018-03-15T19:28:53.321Z,44.52
2018-03-15T19:31:21.778Z,44.55
2018-03-15T19:33:50.266Z,44.51
2018-03-15T19:36:18.729Z,44.95
2018-03-15T19:38:47.334Z,44.72
2018-03-15T19:41:15.798Z,44.71
2018-03-15T19:43:44.316Z,44.65
2018-03-15T19:46:12.826Z,44.82
2018-03-15T19:48:41.326Z,44.94
2018-03-15T19:51:09.790Z,45.37
2018-03-15T19:53:38.294Z,45.88
2018-03-15T19:56:06.754Z,46.13
2018-03-15T19:58:35.232Z,46.42
2018-03-15T20:01:03.749Z,46.55
2018-03-15T20:03:32.227Z,46.79
2018-03-15T20:06:00.737Z,47.83
2018-03-15T20:08:29.238Z,47.36
2018-03-15T20:10:57.708Z,48.86
2018-03-15T20:13:26.210Z,48.09
2018-03-15T20:15:54.678Z,50.21
2018-03-15T20:18:23.182Z,50.22
2018-03-15T20:20:51.658Z,51.85
2018-03-15T20:23:25.631Z,51.98
2018-03-15T20:25:54.094Z,52.89
2018-03-15T20:28:27.972Z,53.34
2018-03-15T20:30:56.479Z,52.92
2018-03-15T20:33:30.444Z,54.45
2018-03-15T20:35:58.984Z,53.85
2018-03-15T20:38:27.473Z,54.60
2018-03-15T20:41:01.488Z,53.91
2018-03-15T20:43:30.016Z,55.60
2018-03-15T20:46:04.007Z,54.93
2018-03-15T20:48:38.010Z,54.44
2018-03-15T20:51:06.548Z,55.66
2018-03-15T20:53:35.025Z,53.63
2018-03-15T20:56:03.526Z,55.17
2018-03-15T20:58:31.990Z,55.10
2018-03-15T21:01:00.495Z,54.82
2018-03-15T21:03:28.966Z,56.27
2018-03-15T21:05:57.466Z,57.48
2018-03-15T21:08:25.926Z,56.68
2018-03-15T21:10:54.434Z,57.47
2018-03-15T21:13:22.956Z,55.51
2018-03-15T21:15:51.463Z,56.19
2018-03-15T21:18:19.966Z,56.04
2018-03-15T21:20:48.476Z,57.76
2018-03-15T21:23:16.960Z,58.53
2018-03-15T21:25:45.470Z,58.40
2018-03-15T21:28:13.933Z,58.50
2018-03-15T21:30:42.549Z,57.16
2018-03-15T21:33:11.058Z,56.19
2018-03-15T21:35:39.527Z,56.91
2018-03-15T21:38:08.062Z,56.62
2018-03-15T21:40:36.550Z,56.06
2018-03-15T21:43:05.074Z,56.28
2018-03-15T21:45:33.570Z,55.02
2018-03-15T21:48:02.071Z,55.39
2018-03-15T21:50:30.590Z,54.62
2018-03-15T21:52:59.101Z,55.70
2018-03-15T21:55:27.549Z,56.57
2018-03-15T21:57:56.057Z,55.44
2018-03-15T22:00:24.558Z,55.30
2018-03-15T22:02:53.033Z,55.09
2018-03-15T22:05:21.481Z,54.51
2018-03-15T22:07:49.973Z,54.22
2018-03-15T22:10:18.461Z,53.90
2018-03-15T22:12:46.984Z,56.02
2018-03-15T22:15:15.452Z,54.60
2018-03-15T22:17:43.922Z,54.34
2018-03-15T22:20:12.421Z,54.04
2018-03-15T22:22:40.917Z,54.10
2018-03-15T22:25:09.435Z,53.79
2018-03-15T22:27:37.906Z,54.25
2018-03-15T22:30:06.371Z,54.16
2018-03-15T22:32:34.884Z,53.84
2018-03-15T22:35:03.356Z,54.13
2018-03-15T22:37:31.830Z,54.73
2018-03-15T22:40:00.318Z,56.11
2018-03-15T22:42:28.840Z,55.32
2018-03-15T22:44:57.332Z,55.04
2018-03-15T22:47:25.834Z,54.79
2018-03-15T22:49:54.302Z,55.51
2018-03-15T22:52:22.806Z,58.01
2018-03-15T22:54:51.260Z,56.36
2018-03-15T22:57:19.706Z,56.34
2018-03-15T22:59:48.220Z,57.32
2018-03-15T23:02:16.723Z,56.67
2018-03-15T23:04:45.206Z,56.09
2018-03-15T23:07:13.706Z,55.86
2018-03-15T23:09:42.222Z,55.84
2018-03-15T23:12:10.687Z,56.22
2018-03-15T23:14:39.194Z,56.01
2018-03-15T23:17:07.686Z,56.12
2018-03-15T23:19:36.179Z,56.13
2018-03-15T23:22:04.702Z,56.02
2018-03-15T23:24:33.190Z,56.29
2018-03-15T23:27:01.651Z,58.54
2018-03-15T23:29:30.146Z,58.04
2018-03-15T23:31:58.609Z,58.09
2018-03-15T23:34:27.118Z,57.14
2018-03-15T23:36:55.579Z,59.38
2018-03-15T23:39:24.039Z,58.24
2018-03-15T23:41:52.537Z,59.27
2018-03-15T23:44:20.988Z,59.33
2018-03-15T23:46:49.474Z,60.00
2018-03-15T23:49:17.937Z,60.83
2018-03-15T23:51:46.421Z,59.70
2018-03-15T23:54:14.895Z,59.54
2018-03-15T23:56:43.394Z,58.94
2018-03-15T23:59:11.846Z,59.49
